Time;durP1;ratioP1;P1;durP2;ratioP2;P2;SDS_P1;SDS_P2;PMS_P1;PMS_P2;Temp;Humidity;BMP_temperature;BMP_pressure;BME280_temperature;BME280_humidity;BME280_pressure;Samples;Min_cycle;Max_cycle;Signal;HPM_P1;HPM_P2
2021/08/16 00:01:29;;;;;;;18.60;6.20;;;;;;;22.56;42.80;100246.56;4451664;32;20030;-68
2021/08/16 00:03:55;;;;;;;18.33;6.87;;;;;;;22.49;43.06;100244.25;4453136;32;20111;-68
2021/08/16 00:06:21;;;;;;;15.13;6.78;;;;;;;22.53;42.82;100250.50;4449101;32;20041;-68
2021/08/16 00:08:47;;;;;;;17.58;6.78;;;;;;;22.56;42.91;100235.09;4450585;32;20590;-68
2021/08/16 00:11:13;;;;;;;18.12;8.50;;;;;;;22.95;42.04;100247.03;4453802;32;20063;-68
2021/08/16 00:13:39;;;;;;;23.25;10.80;;;;;;;22.72;42.33;100234.19;4447480;32;20403;-68
2021/08/16 00:16:06;;;;;;;23.60;11.27;;;;;;;22.51;42.75;100233.84;4453374;32;20029;-68
2021/08/16 00:18:33;;;;;;;29.45;11.40;;;;;;;23.01;42.12;100233.41;4451893;32;20088;-68
2021/08/16 00:21:00;;;;;;;26.02;11.70;;;;;;;22.82;42.46;100229.66;4448494;32;20037;-68
2021/08/16 00:23:26;;;;;;;23.87;11.52;;;;;;;23.06;41.89;100239.09;4449827;32;20041;-68
2021/08/16 00:25:52;;;;;;;24.70;11.80;;;;;;;23.17;41.82;100227.47;4447276;32;20073;-68
2021/08/16 00:28:18;;;;;;;23.60;11.70;;;;;;;22.77;42.84;100244.84;4448360;32;20049;-68
2021/08/16 00:30:45;;;;;;;24.58;11.68;;;;;;;23.03;42.43;100239.38;4449853;32;20079;-68
2021/08/16 00:33:11;;;;;;;26.67;12.23;;;;;;;23.18;42.41;100223.31;4453712;32;20128;-68
2021/08/16 00:35:36;;;;;;;24.08;11.93;;;;;;;23.24;42.39;100231.88;4448471;32;20076;-68
2021/08/16 00:38:03;;;;;;;28.65;12.18;;;;;;;23.24;42.53;100226.94;4449996;32;20540;-68
2021/08/16 00:40:29;;;;;;;24.17;13.93;;;;;;;23.40;42.27;100236.66;4449818;32;20715;-68
2021/08/16 00:42:55;;;;;;;31.25;14.07;;;;;;;23.18;42.52;100228.25;4451739;32;20077;-68
2021/08/16 00:45:21;;;;;;;28.77;14.55;;;;;;;23.40;42.00;100228.81;4453188;32;20021;-68
2021/08/16 00:47:47;;;;;;;36.42;16.60;;;;;;;23.69;41.54;100232.91;4451256;32;20060;-68
2021/08/16 00:50:14;;;;;;;37.70;18.08;;;;;;;22.82;43.17;100212.44;4450016;32;20045;-68
2021/08/16 00:52:41;;;;;;;37.50;19.17;;;;;;;22.99;43.07;100227.41;4448592;32;20131;-68
2021/08/16 00:55:09;;;;;;;48.90;21.25;;;;;;;22.82;43.32;100215.31;4451700;32;20041;-68
2021/08/16 00:57:36;;;;;;;44.72;20.77;;;;;;;22.90;43.15;100219.16;4450312;32;21583;-68
2021/08/16 01:00:05;;;;;;;50.40;22.23;;;;;;;22.61;43.61;100220.72;4450275;32;20037;-68
2021/08/16 01:02:32;;;;;;;47.00;22.48;;;;;;;22.34;44.42;100220.91;4444364;32;20199;-68
2021/08/16 01:05:02;;;;;;;42.25;21.98;;;;;;;22.05;45.07;100235.94;4447150;32;20030;-68
2021/08/16 01:07:29;;;;;;;55.08;25.40;;;;;;;22.24;44.88;100234.03;4447224;32;20254;-68
2021/08/16 01:09:55;;;;;;;49.72;22.73;;;;;;;22.28;44.82;100234.50;4436965;32;20071;-68
2021/08/16 01:12:20;;;;;;;41.95;23.23;;;;;;;22.70;43.68;100231.09;4451118;32;20076;-68
2021/08/16 01:14:46;;;;;;;45.55;22.00;;;;;;;22.63;43.93;100237.37;4448820;32;20470;-68
2021/08/16 01:17:13;;;;;;;51.85;24.60;;;;;;;22.84;43.56;100244.25;4448803;32;20792;-68
2021/08/16 01:19:40;;;;;;;58.17;25.62;;;;;;;22.46;44.40;100242.47;4447999;32;20510;-68
2021/08/16 01:22:06;;;;;;;53.85;24.48;;;;;;;22.70;44.03;100234.72;4447850;32;20124;-68
2021/08/16 01:24:32;;;;;;;49.15;23.50;;;;;;;22.90;43.52;100242.91;4447472;32;20033;-68
2021/08/16 01:27:04;;;;;;;48.55;25.00;;;;;;;22.92;43.45;100246.00;4452478;32;20073;-68
2021/08/16 01:29:30;;;;;;;54.97;27.58;;;;;;;23.42;42.41;100242.66;4445298;32;20111;-68
2021/08/16 01:31:59;;;;;;;60.45;28.02;;;;;;;22.97;43.24;100236.56;4448039;32;20076;-68
2021/08/16 01:34:25;;;;;;;59.92;27.90;;;;;;;22.83;43.69;100248.44;4449357;32;20037;-68
2021/08/16 01:36:50;;;;;;;59.60;28.35;;;;;;;22.80;43.57;100238.78;4450650;32;20137;-68
2021/08/16 01:39:17;;;;;;;59.53;28.45;;;;;;;22.80;43.68;100246.66;4450413;32;20041;-68
2021/08/16 01:41:42;;;;;;;59.65;28.08;;;;;;;22.61;44.08;100240.03;4453358;32;20021;-68
2021/08/16 01:44:14;;;;;;;65.75;29.75;;;;;;;22.91;43.36;100243.66;4448562;32;20381;-68
2021/08/16 01:46:41;;;;;;;60.72;30.02;;;;;;;22.90;43.36;100248.62;4453306;32;20493;-68
2021/08/16 01:49:08;;;;;;;56.55;28.48;;;;;;;22.83;43.40;100237.72;4449930;32;20082;-68
2021/08/16 01:51:36;;;;;;;61.67;29.40;;;;;;;22.98;43.19;100234.47;4451793;32;20033;-68
2021/08/16 01:54:04;;;;;;;67.03;30.25;;;;;;;22.65;43.68;100235.56;4447527;32;20079;-68
2021/08/16 01:56:29;;;;;;;65.43;31.15;;;;;;;23.00;42.89;100234.69;4450343;32;20040;-68
2021/08/16 01:58:55;;;;;;;64.28;30.73;;;;;;;22.75;43.26;100251.13;4448919;32;20105;-68
2021/08/16 02:01:21;;;;;;;66.15;31.33;;;;;;;22.10;44.43;100229.41;4450315;32;20064;-69
2021/08/16 02:03:47;;;;;;;69.05;30.73;;;;;;;22.18;44.54;100239.00;4448799;32;20128;-69
2021/08/16 02:06:14;;;;;;;59.28;30.30;;;;;;;22.30;44.17;100243.38;4450935;32;20080;-69
2021/08/16 02:08:41;;;;;;;67.40;29.95;;;;;;;22.29;43.99;100236.06;4446978;32;20103;-69
2021/08/16 02:11:08;;;;;;;58.87;28.90;;;;;;;22.45;43.45;100229.41;4449497;32;20038;-69
2021/08/16 02:13:34;;;;;;;62.65;28.90;;;;;;;22.15;44.04;100245.81;4450127;32;20060;-69
2021/08/16 02:16:00;;;;;;;62.17;27.30;;;;;;;22.26;43.51;100251.44;4453581;32;20033;-69
2021/08/16 02:18:26;;;;;;;61.25;28.95;;;;;;;21.95;43.89;100246.94;4448913;32;20572;-69
2021/08/16 02:20:52;;;;;;;55.22;25.77;;;;;;;21.89;43.93;100245.41;4449312;32;20048;-69
2021/08/16 02:23:17;;;;;;;59.30;27.13;;;;;;;22.02;43.29;100254.97;4453676;32;20067;-69
2021/08/16 02:25:44;;;;;;;58.80;26.73;;;;;;;21.84;43.79;100252.72;4449325;32;20025;-69
2021/08/16 02:28:09;;;;;;;52.50;25.05;;;;;;;21.87;43.66;100250.91;4447668;32;20085;-69
2021/08/16 02:30:35;;;;;;;59.70;26.20;;;;;;;22.26;42.88;100268.66;4450934;32;20132;-69
2021/08/16 02:33:00;;;;;;;66.20;26.80;;;;;;;21.97;43.33;100264.41;4452793;32;20056;-69
2021/08/16 02:35:26;;;;;;;57.88;26.73;;;;;;;22.12;43.16;100269.78;4451932;32;20041;-69
2021/08/16 02:37:52;;;;;;;54.60;25.83;;;;;;;21.89;43.60;100262.59;4448876;32;20103;-69
2021/08/16 02:40:17;;;;;;;55.47;26.70;;;;;;;21.99;43.36;100261.78;4450401;32;20119;-69
2021/08/16 02:42:43;;;;;;;53.03;25.15;;;;;;;21.96;43.56;100262.06;4453338;32;20455;-69
2021/08/16 02:45:10;;;;;;;46.78;23.67;;;;;;;22.26;42.85;100280.13;4451866;32;20096;-69
2021/08/16 02:47:36;;;;;;;57.60;24.15;;;;;;;21.86;43.15;100281.63;4453080;32;20070;-69
2021/08/16 02:50:02;;;;;;;47.47;20.67;;;;;;;22.07;42.62;100274.25;4454109;32;20057;-69
2021/08/16 02:52:28;;;;;;;50.65;22.33;;;;;;;22.25;42.10;100285.09;4449110;32;20042;-69
2021/08/16 02:54:54;;;;;;;48.72;22.77;;;;;;;21.84;42.50;100280.63;4453745;32;20103;-69
2021/08/16 02:57:20;;;;;;;51.33;22.02;;;;;;;22.46;41.40;100282.59;4450514;32;20467;-69
2021/08/16 02:59:47;;;;;;;54.38;22.15;;;;;;;22.48;41.12;100279.97;4437555;32;20128;-69
2021/08/16 03:02:13;;;;;;;47.10;22.27;;;;;;;21.91;42.24;100289.44;4450548;32;20102;-69
2021/08/16 03:04:39;;;;;;;45.92;22.33;;;;;;;21.93;42.15;100280.31;4451173;32;20048;-69
2021/08/16 03:07:04;;;;;;;48.35;21.73;;;;;;;21.97;41.97;100280.81;4449691;32;20491;-69
2021/08/16 03:09:31;;;;;;;51.35;22.00;;;;;;;22.30;41.58;100289.22;4450492;32;20111;-69
2021/08/16 03:11:57;;;;;;;52.28;22.70;;;;;;;22.57;41.11;100277.59;4451859;32;20060;-69
2021/08/16 03:14:24;;;;;;;50.22;22.58;;;;;;;22.56;41.05;100289.59;4450542;32;20082;-69
2021/08/16 03:16:50;;;;;;;54.55;23.35;;;;;;;22.44;41.29;100302.41;4450721;32;20088;-69
2021/08/16 03:19:15;;;;;;;47.97;23.60;;;;;;;22.03;41.99;100302.38;4451754;32;20063;-69
2021/08/16 03:21:41;;;;;;;55.50;25.37;;;;;;;21.74;42.79;100290.78;4450510;32;20511;-69
2021/08/16 03:24:07;;;;;;;58.08;24.80;;;;;;;21.83;42.86;100297.00;4450563;32;20025;-69
2021/08/16 03:26:33;;;;;;;57.67;25.27;;;;;;;21.95;42.43;100292.00;4450332;32;20041;-69
2021/08/16 03:29:00;;;;;;;55.05;24.40;;;;;;;22.07;42.27;100302.09;4452690;32;20396;-69
2021/08/16 03:31:26;;;;;;;59.53;25.55;;;;;;;22.44;41.53;100313.88;4452099;32;20045;-69
2021/08/16 03:33:53;;;;;;;59.28;26.50;;;;;;;22.52;41.39;100312.06;4453515;32;20096;-69
2021/08/16 03:36:19;;;;;;;59.65;26.42;;;;;;;22.40;41.68;100317.03;4450578;32;20093;-69
2021/08/16 03:38:44;;;;;;;60.28;25.67;;;;;;;22.38;41.52;100313.16;4448859;32;20394;-69
2021/08/16 03:41:10;;;;;;;58.42;25.30;;;;;;;22.31;41.88;100322.31;4450905;32;20064;-69
2021/08/16 03:43:36;;;;;;;57.05;24.27;;;;;;;22.70;41.08;100325.75;4453010;32;20041;-69
2021/08/16 03:46:01;;;;;;;68.53;29.58;;;;;;;22.70;41.00;100329.38;4451611;32;20084;-69
2021/08/16 03:48:27;;;;;;;62.97;26.40;;;;;;;22.66;41.11;100330.97;4450868;32;20483;-69
2021/08/16 03:50:53;;;;;;;63.25;27.77;;;;;;;22.65;41.10;100329.44;4449099;32;20051;-69
2021/08/16 03:53:18;;;;;;;57.00;26.42;;;;;;;22.78;40.89;100338.19;4448445;32;20382;-69
2021/08/16 03:55:46;;;;;;;60.63;26.95;;;;;;;22.91;40.37;100333.41;4453070;32;20056;-69
2021/08/16 03:58:11;;;;;;;59.95;26.92;;;;;;;23.16;39.86;100331.34;4447671;32;20422;-69
2021/08/16 04:00:38;;;;;;;61.63;28.00;;;;;;;23.16;39.93;100328.47;4450309;32;20131;-69
2021/08/16 04:03:04;;;;;;;62.85;27.83;;;;;;;23.47;39.46;100333.69;4450885;32;20084;-69
2021/08/16 04:05:30;;;;;;;63.75;27.95;;;;;;;23.33;39.43;100344.28;4446412;32;20057;-69
2021/08/16 04:07:55;;;;;;;60.58;27.45;;;;;;;23.72;38.80;100349.66;4450204;32;20449;-69
2021/08/16 04:10:23;;;;;;;65.97;29.48;;;;;;;23.73;38.77;100350.41;4449482;32;20426;-69
2021/08/16 04:12:55;;;;;;;61.88;27.15;;;;;;;23.86;38.60;100341.87;4449696;32;20056;-69
2021/08/16 04:15:31;;;;;;;66.55;29.20;;;;;;;23.83;38.53;100348.75;4447816;32;20068;-69
2021/08/16 04:18:07;;;;;;;67.18;28.77;;;;;;;23.93;38.45;100341.31;4448466;32;20029;-69
2021/08/16 04:20:32;;;;;;;65.37;29.20;;;;;;;24.07;38.28;100348.72;4451234;32;20102;-69
2021/08/16 04:23:01;;;;;;;72.37;30.55;;;;;;;23.96;38.51;100357.50;4448488;32;20122;-69
2021/08/16 04:25:27;;;;;;;67.20;29.33;;;;;;;23.85;38.77;100354.72;4452978;32;20077;-69
2021/08/16 04:28:03;;;;;;;69.93;30.75;;;;;;;23.74;39.18;100363.47;4447078;32;20072;-69
2021/08/16 04:30:29;;;;;;;73.68;30.65;;;;;;;23.88;38.91;100370.88;4451481;32;20462;-69
2021/08/16 04:32:54;;;;;;;76.57;31.12;;;;;;;24.02;38.85;100358.97;4448030;32;20033;-69
2021/08/16 04:35:20;;;;;;;73.82;31.75;;;;;;;23.55;39.67;100372.00;4451211;32;20068;-69
2021/08/16 04:37:47;;;;;;;71.90;31.15;;;;;;;23.47;40.03;100371.81;4449253;32;20037;-69
2021/08/16 04:40:13;;;;;;;73.28;30.48;;;;;;;23.49;40.04;100362.66;4451845;32;20097;-69
2021/08/16 04:42:40;;;;;;;80.05;32.83;;;;;;;22.80;41.40;100358.53;4448765;32;20433;-69
2021/08/16 04:45:08;;;;;;;74.62;31.08;;;;;;;22.98;41.31;100363.63;4450881;32;20111;-69
2021/08/16 04:47:34;;;;;;;72.87;31.20;;;;;;;23.39;40.50;100355.72;4445636;32;20089;-69
2021/08/16 04:50:00;;;;;;;73.70;31.10;;;;;;;22.60;41.75;100359.69;4446758;32;20093;-69
2021/08/16 04:52:25;;;;;;;74.07;30.35;;;;;;;22.47;42.16;100352.97;4447266;32;20152;-69
2021/08/16 04:54:52;;;;;;;73.75;30.17;;;;;;;22.40;42.29;100359.28;4451251;32;20346;-69
2021/08/16 04:57:36;;;;;;;75.85;31.12;;;;;;;22.21;42.92;100344.75;4449527;32;20036;-69
2021/08/16 05:00:05;;;;;;;73.07;31.23;;;;;;;22.54;42.22;100346.69;4446822;32;20375;-69
2021/08/16 05:02:31;;;;;;;73.60;30.50;;;;;;;22.96;41.46;100357.62;4446499;32;20064;-69
2021/08/16 05:05:03;;;;;;;76.05;30.20;;;;;;;22.52;41.95;100372.28;4434756;32;20332;-69
2021/08/16 05:07:29;;;;;;;69.20;30.08;;;;;;;22.62;41.83;100376.37;4450662;32;20038;-69
2021/08/16 05:09:55;;;;;;;63.08;29.90;;;;;;;22.43;42.10;100390.53;4450329;32;20029;-69
2021/08/16 05:12:20;;;;;;;67.87;29.80;;;;;;;22.66;41.59;100391.22;4451425;32;20122;-69
2021/08/16 05:14:46;;;;;;;76.43;31.37;;;;;;;22.53;42.09;100391.03;4449387;32;20474;-69
2021/08/16 05:17:12;;;;;;;74.10;30.48;;;;;;;22.44;42.32;100397.84;4449385;32;20063;-69
2021/08/16 05:19:38;;;;;;;78.57;31.30;;;;;;;22.14;43.12;100396.13;4454756;32;20084;-69
2021/08/16 05:22:06;;;;;;;73.30;30.58;;;;;;;21.82;43.73;100390.00;4450186;32;20383;-69
2021/08/16 05:24:33;;;;;;;70.20;29.87;;;;;;;22.28;43.09;100400.78;4450575;32;20300;-69
2021/08/16 05:26:59;;;;;;;74.55;30.85;;;;;;;22.52;42.49;100395.97;4449291;32;20067;-69
2021/08/16 05:29:25;;;;;;;73.25;29.45;;;;;;;22.41;42.52;100412.44;4447395;32;20359;-69
2021/08/16 05:31:51;;;;;;;72.87;31.20;;;;;;;22.72;41.91;100412.03;4447435;32;20052;-69
2021/08/16 05:34:16;;;;;;;67.95;29.65;;;;;;;22.53;42.33;100414.78;4437737;32;20429;-69
2021/08/16 05:36:42;;;;;;;73.47;30.75;;;;;;;22.18;43.05;100428.19;4453083;32;20085;-69
2021/08/16 05:39:08;;;;;;;70.60;29.10;;;;;;;22.60;42.00;100431.41;4450771;32;20057;-69
2021/08/16 05:41:33;;;;;;;69.97;30.73;;;;;;;22.29;42.57;100431.78;4449410;32;20134;-69
2021/08/16 05:43:59;;;;;;;82.95;30.35;;;;;;;22.42;42.28;100434.06;4451008;32;20477;-69
2021/08/16 05:46:24;;;;;;;71.15;29.70;;;;;;;22.31;42.62;100448.47;4454719;32;20098;-69
2021/08/16 05:48:50;;;;;;;68.22;29.08;;;;;;;22.37;42.35;100444.25;4452005;32;20103;-69
2021/08/16 05:51:16;;;;;;;67.37;28.67;;;;;;;22.23;42.69;100438.84;4453417;32;20127;-69
2021/08/16 05:53:41;;;;;;;65.55;28.92;;;;;;;22.42;42.05;100445.53;4450443;32;20081;-69
2021/08/16 05:56:07;;;;;;;59.63;27.00;;;;;;;22.68;41.66;100446.75;4451770;32;20528;-69
2021/08/16 05:58:34;;;;;;;63.78;27.20;;;;;;;22.96;40.97;100440.84;4448001;32;20674;-69
2021/08/16 06:01:00;;;;;;;58.45;27.42;;;;;;;23.01;40.91;100443.69;4454724;32;20037;-69
2021/08/16 06:03:26;;;;;;;64.80;28.27;;;;;;;23.17;40.44;100444.88;4450965;32;20133;-69
2021/08/16 06:05:52;;;;;;;63.10;26.50;;;;;;;23.15;40.44;100447.50;4452725;32;20079;-69
2021/08/16 06:08:18;;;;;;;55.67;26.27;;;;;;;23.66;39.69;100449.47;4448741;32;20168;-69
2021/08/16 06:10:43;;;;;;;60.97;27.15;;;;;;;23.75;39.29;100452.00;4454695;32;20439;-69
2021/08/16 06:13:09;;;;;;;58.30;27.02;;;;;;;23.64;39.44;100469.34;4439495;32;20061;-70
2021/08/16 06:15:35;;;;;;;65.90;27.48;;;;;;;23.76;39.38;100478.63;4451102;32;20496;-69
2021/08/16 06:18:00;;;;;;;60.95;28.05;;;;;;;23.77;39.17;100485.97;4451331;32;20140;-69
2021/08/16 06:20:26;;;;;;;59.55;26.02;;;;;;;24.04;38.85;100482.03;4450224;32;20132;-69
2021/08/16 06:22:52;;;;;;;60.30;25.33;;;;;;;24.08;38.90;100476.78;4446917;32;20053;-69
2021/08/16 06:25:18;;;;;;;54.83;25.50;;;;;;;24.52;38.05;100493.53;4447702;32;20493;-69
2021/08/16 06:27:43;;;;;;;56.40;27.10;;;;;;;24.77;37.53;100490.12;4452754;32;20097;-70
2021/08/16 06:30:09;;;;;;;57.50;27.73;;;;;;;24.84;37.46;100482.94;4441807;32;20120;-69
2021/08/16 06:32:36;;;;;;;57.55;25.37;;;;;;;25.07;36.93;100490.72;4450162;32;20105;-69
2021/08/16 06:35:03;;;;;;;54.80;24.58;;;;;;;25.20;36.84;100490.81;4450561;32;20125;-70
2021/08/16 06:37:29;;;;;;;49.85;24.67;;;;;;;25.14;37.04;100500.84;4448836;32;20076;-69
2021/08/16 06:39:55;;;;;;;54.42;24.90;;;;;;;24.89;37.42;100496.50;4451864;32;20496;-69
2021/08/16 06:42:21;;;;;;;48.40;23.73;;;;;;;25.31;36.67;100519.47;4450575;32;20141;-69
2021/08/16 06:44:47;;;;;;;55.65;25.33;;;;;;;25.12;37.15;100506.38;4452546;32;20116;-70
2021/08/16 06:47:14;;;;;;;52.15;24.12;;;;;;;25.28;36.84;100505.37;4454574;32;20103;-69
2021/08/16 06:49:40;;;;;;;48.78;23.95;;;;;;;25.38;36.82;100518.84;4449133;32;20076;-69
2021/08/16 06:52:07;;;;;;;51.33;24.35;;;;;;;25.78;36.25;100519.78;4448601;32;20072;-69
2021/08/16 06:54:33;;;;;;;49.83;22.85;;;;;;;26.08;35.71;100510.91;4448899;32;20084;-69
2021/08/16 06:57:00;;;;;;;50.40;22.52;;;;;;;26.14;35.34;100523.88;4450367;32;20088;-70
2021/08/16 06:59:26;;;;;;;54.03;23.65;;;;;;;26.29;35.31;100520.47;4444971;32;20050;-70
2021/08/16 07:01:51;;;;;;;50.70;22.45;;;;;;;26.15;35.48;100522.56;4452685;32;20036;-70
2021/08/16 07:04:18;;;;;;;41.47;18.75;;;;;;;25.92;35.80;100523.50;4449694;32;20068;-70
2021/08/16 07:06:44;;;;;;;43.95;20.00;;;;;;;26.20;35.59;100533.22;4447302;32;20038;-69
2021/08/16 07:09:10;;;;;;;46.58;20.52;;;;;;;26.50;34.90;100542.34;4449844;32;20343;-69
2021/08/16 07:11:36;;;;;;;36.75;19.10;;;;;;;26.37;35.20;100544.44;4451810;32;20049;-69
2021/08/16 07:14:02;;;;;;;42.45;19.17;;;;;;;26.25;35.25;100537.31;4450670;32;20096;-70
2021/08/16 07:16:28;;;;;;;40.75;18.50;;;;;;;26.55;35.03;100544.38;4450422;32;20540;-69
2021/08/16 07:18:54;;;;;;;44.67;20.88;;;;;;;26.76;34.45;100539.50;4447800;32;20443;-69
2021/08/16 07:21:20;;;;;;;34.58;17.20;;;;;;;26.44;34.86;100552.44;4449193;32;20037;-69
2021/08/16 07:23:46;;;;;;;36.67;18.23;;;;;;;26.57;34.72;100564.00;4450642;32;20073;-69
2021/08/16 07:26:11;;;;;;;31.62;16.67;;;;;;;26.76;34.44;100562.59;4452513;32;20071;-69
2021/08/16 07:28:37;;;;;;;34.25;16.73;;;;;;;26.58;34.54;100566.34;4447832;32;20088;-70
2021/08/16 07:31:05;;;;;;;35.40;16.58;;;;;;;26.44;34.89;100566.88;4453020;32;20041;-69
2021/08/16 07:33:31;;;;;;;73.28;44.33;;;;;;;26.76;34.63;100561.81;4451093;32;20037;-69
2021/08/16 07:35:57;;;;;;;32.15;14.75;;;;;;;26.51;34.91;100572.00;4450879;32;20041;-69
2021/08/16 07:38:22;;;;;;;30.52;13.90;;;;;;;26.75;34.69;100555.25;4449785;32;20063;-69
2021/08/16 07:40:48;;;;;;;29.25;14.25;;;;;;;27.15;33.96;100555.97;4448677;32;20033;-69
2021/08/16 07:43:18;;;;;;;30.70;13.75;;;;;;;27.17;34.15;100553.31;4445385;32;20084;-69
2021/08/16 07:45:44;;;;;;;29.35;13.05;;;;;;;27.00;33.88;100568.13;4445772;32;20116;-69
2021/08/16 07:48:10;;;;;;;31.50;13.38;;;;;;;27.17;33.77;100573.53;4449489;32;20048;-70
2021/08/16 07:50:36;;;;;;;27.20;11.68;;;;;;;27.09;33.52;100575.56;4449468;32;20059;-70
2021/08/16 07:53:02;;;;;;;32.47;11.93;;;;;;;26.92;33.77;100572.25;4451455;32;20096;-70
2021/08/16 07:55:27;;;;;;;24.87;10.23;;;;;;;26.66;34.00;100569.37;4449293;32;20040;-69
2021/08/16 07:57:53;;;;;;;23.38;11.50;;;;;;;26.69;33.76;100577.69;4448089;32;20184;-70
2021/08/16 08:00:20;;;;;;;22.77;10.75;;;;;;;26.67;34.00;100588.25;4435537;32;20431;-69
2021/08/16 08:02:47;;;;;;;22.27;10.52;;;;;;;27.03;33.48;100592.25;4450017;32;20077;-69
2021/08/16 08:05:15;;;;;;;22.70;9.10;;;;;;;27.25;33.08;100614.91;4447201;32;20394;-70
2021/08/16 08:07:42;;;;;;;21.90;9.50;;;;;;;26.88;33.48;100603.59;4446274;32;20148;-70
2021/08/16 08:10:10;;;;;;;27.08;10.05;;;;;;;26.76;33.48;100608.03;4450651;32;20113;-70
2021/08/16 08:12:36;;;;;;;24.73;13.57;;;;;;;27.00;33.07;100617.22;4449704;32;20394;-70
2021/08/16 08:15:03;;;;;;;22.30;10.07;;;;;;;27.42;32.53;100615.31;4449054;32;20041;-70
2021/08/16 08:17:29;;;;;;;19.10;8.63;;;;;;;27.76;31.96;100621.88;4446784;32;20033;-70
2021/08/16 08:19:55;;;;;;;23.62;9.05;;;;;;;27.49;31.96;100617.53;4446455;32;20055;-70
2021/08/16 08:22:21;;;;;;;19.12;9.52;;;;;;;27.35;32.36;100621.00;4450922;32;20514;-70
2021/08/16 08:24:48;;;;;;;19.75;7.68;;;;;;;27.19;32.57;100623.66;4449309;32;20126;-69
2021/08/16 08:27:14;;;;;;;15.43;7.60;;;;;;;26.65;33.26;100628.44;4448715;32;20060;-70
2021/08/16 08:29:40;;;;;;;18.70;8.32;;;;;;;25.95;34.36;100621.19;4451106;32;20067;-70
2021/08/16 08:32:07;;;;;;;13.13;6.93;;;;;;;26.73;33.51;100629.34;4448353;32;20082;-70
2021/08/16 08:34:33;;;;;;;19.62;7.03;;;;;;;26.43;33.85;100631.69;4448784;32;20088;-70
2021/08/16 08:36:58;;;;;;;18.17;7.97;;;;;;;26.57;33.84;100613.84;4446879;32;20073;-70
2021/08/16 08:39:24;;;;;;;14.75;6.97;;;;;;;26.42;34.33;100619.38;4443918;32;20144;-70
2021/08/16 08:41:56;;;;;;;15.27;7.32;;;;;;;26.84;33.30;100635.66;4449756;32;20109;-70
2021/08/16 08:44:23;;;;;;;20.02;7.93;;;;;;;26.57;33.39;100651.38;4449290;32;20049;-70
2021/08/16 08:46:49;;;;;;;16.17;7.97;;;;;;;26.82;33.06;100637.56;4446411;32;20503;-70
2021/08/16 08:49:16;;;;;;;15.02;7.20;;;;;;;26.83;32.95;100644.88;4448037;32;20037;-70
2021/08/16 08:51:42;;;;;;;17.05;7.65;;;;;;;26.61;33.32;100648.16;4448507;32;20077;-70
2021/08/16 08:54:09;;;;;;;18.30;7.82;;;;;;;26.86;32.72;100656.12;4448141;32;20085;-70
2021/08/16 08:56:35;;;;;;;20.17;8.18;;;;;;;26.96;32.73;100653.56;4446591;32;20032;-70
2021/08/16 08:59:02;;;;;;;14.55;7.25;;;;;;;27.84;31.52;100656.69;4433808;32;20119;-69
2021/08/16 09:01:28;;;;;;;16.62;7.20;;;;;;;28.06;31.10;100641.72;4449883;32;20064;-69
2021/08/16 09:03:55;;;;;;;18.02;7.20;;;;;;;27.69;31.45;100657.28;4447128;32;20046;-70
2021/08/16 09:06:41;;;;;;;19.00;7.68;;;;;;;26.74;33.07;100660.53;4450118;32;21300;-70
2021/08/16 09:09:07;;;;;;;16.05;7.65;;;;;;;26.99;32.76;100661.91;4447702;32;20153;-70
2021/08/16 09:11:33;;;;;;;19.55;8.68;;;;;;;27.03;32.59;100658.69;4452085;32;20114;-70
2021/08/16 09:14:03;;;;;;;19.17;8.65;;;;;;;27.37;32.28;100662.47;4447451;32;20096;-70
2021/08/16 09:16:33;;;;;;;17.80;7.12;;;;;;;27.91;31.69;100677.06;4449703;32;20525;-70
2021/08/16 09:19:10;;;;;;;16.55;6.57;;;;;;;27.65;31.74;100676.31;4447990;32;20034;-69
2021/08/16 09:21:39;;;;;;;15.20;7.12;;;;;;;27.58;31.75;100671.97;4450750;32;20037;-69
2021/08/16 09:24:05;;;;;;;16.37;8.20;;;;;;;27.68;31.58;100675.19;4448637;32;20025;-69
2021/08/16 09:26:37;;;;;;;18.65;8.13;;;;;;;27.51;31.80;100672.66;4448308;32;20517;-69
2021/08/16 09:29:17;;;;;;;18.60;6.85;;;;;;;28.37;30.61;100690.66;4450040;32;20422;-69
2021/08/16 09:37:25;;;;;;;12.93;6.65;;;;;;;29.16;29.43;100690.19;3963153;32;15024626;-70
2021/08/16 09:39:59;;;;;;;14.73;7.20;;;;;;;29.16;29.43;100690.19;4405739;32;20068;-69
2021/08/16 09:42:25;;;;;;;17.35;8.13;;;;;;;29.35;29.07;100690.69;4417518;32;20451;-69
2021/08/16 09:44:53;;;;;;;18.45;9.10;;;;;;;29.19;28.76;100703.56;4416377;32;20107;-69
2021/08/16 09:47:18;;;;;;;19.58;10.77;;;;;;;28.91;29.09;100708.00;4418582;32;20332;-69
2021/08/16 09:49:56;;;;;;;13.15;6.70;;;;;;;29.10;28.91;100713.56;4412440;32;20103;-69
2021/08/16 09:52:28;;;;;;;13.25;6.55;;;;;;;29.12;29.21;100712.97;4416199;32;20041;-69
2021/08/16 09:54:54;;;;;;;14.20;7.00;;;;;;;28.89;29.51;100706.97;4420040;32;20279;-69
2021/08/16 09:57:20;;;;;;;15.30;6.57;;;;;;;28.78;29.48;100701.50;4415174;32;20064;-69
2021/08/16 09:59:47;;;;;;;13.25;6.22;;;;;;;27.86;30.78;100711.91;4419020;32;20748;-69
2021/08/16 10:02:14;;;;;;;15.23;7.25;;;;;;;28.45;30.41;100714.72;4417024;32;20026;-69
2021/08/16 10:04:40;;;;;;;15.95;8.10;;;;;;;27.80;33.02;100720.69;4416167;32;20095;-69
2021/08/16 10:07:09;;;;;;;17.77;7.80;;;;;;;27.38;33.31;100733.38;4415902;32;20078;-69
2021/08/16 10:09:36;;;;;;;17.45;7.22;;;;;;;26.64;34.99;100733.69;4417110;32;20223;-68
2021/08/16 10:12:04;;;;;;;14.40;6.22;;;;;;;25.86;36.17;100731.16;4421786;32;20105;-69
2021/08/16 10:14:34;;;;;;;14.73;6.75;;;;;;;25.67;37.61;100730.38;4416576;32;20370;-69
2021/08/16 10:17:02;;;;;;;14.27;6.45;;;;;;;25.74;36.13;100731.87;4419662;32;20122;-69
2021/08/16 10:19:36;;;;;;;15.82;6.68;;;;;;;25.80;36.98;100724.69;4418650;32;20477;-69
2021/08/16 10:22:02;;;;;;;16.20;7.68;;;;;;;25.93;35.63;100732.66;4420220;32;20086;-69
2021/08/16 10:24:30;;;;;;;16.30;7.97;;;;;;;26.25;34.67;100734.28;4419103;32;20405;-69
2021/08/16 10:26:59;;;;;;;26.12;12.35;;;;;;;26.91;34.44;100746.88;4413054;32;20065;-68
2021/08/16 10:29:26;;;;;;;30.50;12.30;;;;;;;27.04;34.96;100739.00;4413836;32;20037;-70
2021/08/16 10:31:53;;;;;;;24.73;12.10;;;;;;;26.91;34.83;100744.00;4417995;32;20079;-70
2021/08/16 10:37:12;;;;;;;27.70;13.77;;;;;;;28.70;32.81;100764.38;3979923;32;15027318;-70
2021/08/16 10:42:20;;;;;;;25.77;13.60;;;;;;;28.91;32.17;100745.66;3960581;32;15139862;-70
2021/08/16 10:44:49;;;;;;;23.62;11.90;;;;;;;28.91;32.17;100745.66;4414746;32;20351;-69
2021/08/16 10:47:34;;;;;;;25.95;12.45;;;;;;;28.65;32.03;100745.78;4413246;32;20095;-69
2021/08/16 10:50:08;;;;;;;;;;;;;;;28.79;31.63;100758.09;4413330;32;20137;-70
2021/08/16 10:52:38;;;;;;;21.02;11.60;;;;;;;28.81;31.55;100758.31;4418544;32;19957;-70
2021/08/16 10:55:25;;;;;;;26.00;12.60;;;;;;;28.32;32.71;100755.25;4418948;32;20073;-70
2021/08/16 10:57:50;;;;;;;24.92;12.85;;;;;;;28.12;32.96;100764.69;4415505;32;20113;-70
2021/08/16 11:00:17;;;;;;;22.15;11.30;;;;;;;28.23;32.83;100769.44;4413461;32;20091;-70
2021/08/16 11:02:43;;;;;;;20.48;10.43;;;;;;;28.00;32.76;100759.69;4421703;32;20034;-70
2021/08/16 11:05:11;;;;;;;21.20;11.00;;;;;;;28.18;32.21;100774.00;4416998;32;20383;-70
2021/08/16 11:07:37;;;;;;;26.55;11.38;;;;;;;28.96;31.13;100775.81;4418099;32;21054;-70
2021/08/16 11:10:09;;;;;;;20.58;10.85;;;;;;;29.38;30.60;100773.66;4416777;32;20117;-70
2021/08/16 11:12:39;;;;;;;20.77;11.77;;;;;;;29.65;30.18;100775.81;4417497;32;20052;-70
2021/08/16 11:15:06;;;;;;;23.50;11.52;;;;;;;29.91;29.48;100763.19;4417715;32;20042;-70
2021/08/16 11:17:31;;;;;;;25.02;10.65;;;;;;;29.88;29.62;100773.78;4413446;32;20044;-70
2021/08/16 11:19:59;;;;;;;21.50;10.07;;;;;;;29.86;29.15;100775.72;4418022;32;20367;-70
2021/08/16 11:22:27;;;;;;;18.80;10.05;;;;;;;30.28;28.69;100774.94;4416028;32;20060;-70